sensor_id;sensor_type;location;lat;lon;timestamp;temperature;humidity
2100;DHT22;1055;48.854;9.302;2023-05-07T00:00:03;16.80;99.90
2100;DHT22;1055;48.854;9.302;2023-05-07T00:02:42;16.90;99.90
2100;DHT22;1055;48.854;9.302;2023-05-07T00:05:08;16.90;99.90
2100;DHT22;1055;48.854;9.302;2023-05-07T00:07:34;16.90;99.90
2100;DHT22;1055;48.854;9.302;2023-05-07T00:10:00;16.90;99.90
2100;DHT22;1055;48.854;9.302;2023-05-07T00:12:26;16.80;99.90
2100;DHT22;1055;48.854;9.302;2023-05-07T00:14:57;16.80;99.90
2100;DHT22;1055;48.854;9.302;2023-05-07T00:17:23;16.80;99.90
2100;DHT22;1055;48.854;9.302;2023-05-07T00:19:49;16.30;99.90
2100;DHT22;1055;48.854;9.302;2023-05-07T00:22:17;16.30;99.90
2100;DHT22;1055;48.854;9.302;2023-05-07T00:24:43;16.20;99.90
2100;DHT22;1055;48.854;9.302;2023-05-07T00:27:08;15.60;99.90
2100;DHT22;1055;48.854;9.302;2023-05-07T00:29:37;16.00;99.90
2100;DHT22;1055;48.854;9.302;2023-05-07T00:32:02;16.20;99.90
2100;DHT22;1055;48.854;9.302;2023-05-07T00:34:28;16.30;99.90
2100;DHT22;1055;48.854;9.302;2023-05-07T00:36:54;16.20;99.90
2100;DHT22;1055;48.854;9.302;2023-05-07T00:39:20;16.00;99.90
2100;DHT22;1055;48.854;9.302;2023-05-07T00:41:46;15.90;99.90
2100;DHT22;1055;48.854;9.302;2023-05-07T00:44:13;16.10;99.90
2100;DHT22;1055;48.854;9.302;2023-05-07T00:46:42;16.20;99.90
2100;DHT22;1055;48.854;9.302;2023-05-07T00:49:08;15.60;99.90
2100;DHT22;1055;48.854;9.302;2023-05-07T00:51:33;14.90;99.90
2100;DHT22;1055;48.854;9.302;2023-05-07T00:54:03;14.80;99.90
2100;DHT22;1055;48.854;9.302;2023-05-07T00:56:31;14.50;99.90
2100;DHT22;1055;48.854;9.302;2023-05-07T00:58:57;14.80;99.90
2100;DHT22;1055;48.854;9.302;2023-05-07T01:01:23;15.10;99.90
2100;DHT22;1055;48.854;9.302;2023-05-07T01:03:52;15.30;99.90
2100;DHT22;1055;48.854;9.302;2023-05-07T01:06:18;15.30;99.90
2100;DHT22;1055;48.854;9.302;2023-05-07T01:08:45;15.40;99.90
2100;DHT22;1055;48.854;9.302;2023-05-07T01:11:11;15.60;99.90
2100;DHT22;1055;48.854;9.302;2023-05-07T01:13:38;15.70;99.90
2100;DHT22;1055;48.854;9.302;2023-05-07T01:16:05;15.70;99.90
2100;DHT22;1055;48.854;9.302;2023-05-07T01:18:33;15.80;99.90
2100;DHT22;1055;48.854;9.302;2023-05-07T01:20:59;15.80;99.90
2100;DHT22;1055;48.854;9.302;2023-05-07T01:23:26;15.80;99.90
2100;DHT22;1055;48.854;9.302;2023-05-07T01:25:53;15.80;99.90
2100;DHT22;1055;48.854;9.302;2023-05-07T01:28:19;15.70;99.90
2100;DHT22;1055;48.854;9.302;2023-05-07T01:30:48;15.10;99.90
2100;DHT22;1055;48.854;9.302;2023-05-07T01:33:21;15.20;99.90
2100;DHT22;1055;48.854;9.302;2023-05-07T01:35:50;14.70;99.90
2100;DHT22;1055;48.854;9.302;2023-05-07T01:38:17;14.70;99.90
2100;DHT22;1055;48.854;9.302;2023-05-07T01:40:46;15.00;99.90
2100;DHT22;1055;48.854;9.302;2023-05-07T01:43:12;15.00;99.90
2100;DHT22;1055;48.854;9.302;2023-05-07T01:45:42;15.00;99.90
2100;DHT22;1055;48.854;9.302;2023-05-07T01:48:11;14.90;99.90
2100;DHT22;1055;48.854;9.302;2023-05-07T01:50:38;14.90;99.90
2100;DHT22;1055;48.854;9.302;2023-05-07T01:53:09;15.10;99.90
2100;DHT22;1055;48.854;9.302;2023-05-07T01:55:35;15.20;99.90
2100;DHT22;1055;48.854;9.302;2023-05-07T01:58:02;15.30;99.90
2100;DHT22;1055;48.854;9.302;2023-05-07T02:00:28;15.40;99.90
2100;DHT22;1055;48.854;9.302;2023-05-07T02:02:54;15.10;99.90
2100;DHT22;1055;48.854;9.302;2023-05-07T02:05:20;14.90;99.90
2100;DHT22;1055;48.854;9.302;2023-05-07T02:07:49;15.00;99.90
2100;DHT22;1055;48.854;9.302;2023-05-07T02:10:17;14.90;99.90
2100;DHT22;1055;48.854;9.302;2023-05-07T02:12:42;14.30;99.90
2100;DHT22;1055;48.854;9.302;2023-05-07T02:15:08;13.70;99.90
2100;DHT22;1055;48.854;9.302;2023-05-07T02:17:34;13.50;99.90
2100;DHT22;1055;48.854;9.302;2023-05-07T02:20:01;13.40;99.90
2100;DHT22;1055;48.854;9.302;2023-05-07T02:22:26;13.50;99.90
2100;DHT22;1055;48.854;9.302;2023-05-07T02:24:52;14.00;99.90
2100;DHT22;1055;48.854;9.302;2023-05-07T02:27:18;14.20;99.90
2100;DHT22;1055;48.854;9.302;2023-05-07T02:29:46;14.40;99.90
2100;DHT22;1055;48.854;9.302;2023-05-07T02:32:12;14.30;99.90
2100;DHT22;1055;48.854;9.302;2023-05-07T02:34:37;14.20;99.90
2100;DHT22;1055;48.854;9.302;2023-05-07T02:37:03;14.10;99.90
2100;DHT22;1055;48.854;9.302;2023-05-07T02:39:31;13.90;99.90
2100;DHT22;1055;48.854;9.302;2023-05-07T02:41:57;13.90;99.90
2100;DHT22;1055;48.854;9.302;2023-05-07T02:44:25;14.20;99.90
2100;DHT22;1055;48.854;9.302;2023-05-07T02:46:51;14.40;99.90
2100;DHT22;1055;48.854;9.302;2023-05-07T02:49:22;14.50;99.90
2100;DHT22;1055;48.854;9.302;2023-05-07T02:51:47;14.60;99.90
2100;DHT22;1055;48.854;9.302;2023-05-07T02:54:15;14.70;99.90
2100;DHT22;1055;48.854;9.302;2023-05-07T02:56:41;14.30;99.90
2100;DHT22;1055;48.854;9.302;2023-05-07T02:59:07;14.60;99.90
2100;DHT22;1055;48.854;9.302;2023-05-07T03:01:33;14.70;99.90
2100;DHT22;1055;48.854;9.302;2023-05-07T03:04:01;14.80;99.90
2100;DHT22;1055;48.854;9.302;2023-05-07T03:06:27;14.90;99.90
2100;DHT22;1055;48.854;9.302;2023-05-07T03:08:53;14.90;99.90
2100;DHT22;1055;48.854;9.302;2023-05-07T03:11:26;15.00;99.90
2100;DHT22;1055;48.854;9.302;2023-05-07T03:13:54;15.00;99.90
2100;DHT22;1055;48.854;9.302;2023-05-07T03:16:20;15.00;99.90
2100;DHT22;1055;48.854;9.302;2023-05-07T03:18:46;15.00;99.90
2100;DHT22;1055;48.854;9.302;2023-05-07T03:21:14;14.80;99.90
2100;DHT22;1055;48.854;9.302;2023-05-07T03:23:40;14.80;99.90
2100;DHT22;1055;48.854;9.302;2023-05-07T03:26:09;14.70;99.90
2100;DHT22;1055;48.854;9.302;2023-05-07T03:28:35;14.70;99.90
2100;DHT22;1055;48.854;9.302;2023-05-07T03:31:03;13.50;99.90
2100;DHT22;1055;48.854;9.302;2023-05-07T03:33:29;14.60;99.90
2100;DHT22;1055;48.854;9.302;2023-05-07T03:35:55;14.60;99.90
2100;DHT22;1055;48.854;9.302;2023-05-07T03:38:21;14.60;99.90
2100;DHT22;1055;48.854;9.302;2023-05-07T03:40:46;14.60;99.90
2100;DHT22;1055;48.854;9.302;2023-05-07T03:43:12;11.70;99.90
2100;DHT22;1055;48.854;9.302;2023-05-07T03:45:40;14.60;99.90
2100;DHT22;1055;48.854;9.302;2023-05-07T03:48:06;14.60;99.90
2100;DHT22;1055;48.854;9.302;2023-05-07T03:50:32;14.60;99.90
2100;DHT22;1055;48.854;9.302;2023-05-07T03:53:00;14.60;99.90
2100;DHT22;1055;48.854;9.302;2023-05-07T03:55:26;14.70;99.90
2100;DHT22;1055;48.854;9.302;2023-05-07T03:57:54;14.70;99.90
2100;DHT22;1055;48.854;9.302;2023-05-07T04:00:20;14.70;99.90
2100;DHT22;1055;48.854;9.302;2023-05-07T04:02:46;14.60;99.90
2100;DHT22;1055;48.854;9.302;2023-05-07T04:05:12;14.70;99.90
2100;DHT22;1055;48.854;9.302;2023-05-07T04:07:45;14.60;99.90
2100;DHT22;1055;48.854;9.302;2023-05-07T04:10:11;14.50;99.90
2100;DHT22;1055;48.854;9.302;2023-05-07T04:12:38;14.50;99.90
2100;DHT22;1055;48.854;9.302;2023-05-07T04:15:07;14.40;99.90
2100;DHT22;1055;48.854;9.302;2023-05-07T04:17:33;14.20;99.90
2100;DHT22;1055;48.854;9.302;2023-05-07T04:19:59;13.90;99.90
2100;DHT22;1055;48.854;9.302;2023-05-07T04:22:25;13.60;99.90
2100;DHT22;1055;48.854;9.302;2023-05-07T04:24:53;13.70;99.90
2100;DHT22;1055;48.854;9.302;2023-05-07T04:27:18;13.80;99.90
2100;DHT22;1055;48.854;9.302;2023-05-07T04:29:52;14.00;99.90
2100;DHT22;1055;48.854;9.302;2023-05-07T04:32:21;14.10;99.90
2100;DHT22;1055;48.854;9.302;2023-05-07T04:34:52;14.20;99.90
2100;DHT22;1055;48.854;9.302;2023-05-07T04:37:18;14.30;99.90
2100;DHT22;1055;48.854;9.302;2023-05-07T04:39:47;14.10;99.90
2100;DHT22;1055;48.854;9.302;2023-05-07T04:42:16;13.90;99.90
2100;DHT22;1055;48.854;9.302;2023-05-07T04:44:47;14.00;99.90
2100;DHT22;1055;48.854;9.302;2023-05-07T04:47:15;13.30;99.90
2100;DHT22;1055;48.854;9.302;2023-05-07T04:49:41;13.50;99.90
2100;DHT22;1055;48.854;9.302;2023-05-07T04:52:06;13.70;99.90
2100;DHT22;1055;48.854;9.302;2023-05-07T04:54:32;13.90;99.90
2100;DHT22;1055;48.854;9.302;2023-05-07T04:56:58;13.60;99.90
2100;DHT22;1055;48.854;9.302;2023-05-07T04:59:26;13.70;99.90
2100;DHT22;1055;48.854;9.302;2023-05-07T05:01:52;13.70;99.90
2100;DHT22;1055;48.854;9.302;2023-05-07T05:04:20;13.90;99.90
2100;DHT22;1055;48.854;9.302;2023-05-07T05:06:46;14.00;99.90
2100;DHT22;1055;48.854;9.302;2023-05-07T05:09:11;13.90;99.90
2100;DHT22;1055;48.854;9.302;2023-05-07T05:11:37;14.20;99.90
2100;DHT22;1055;48.854;9.302;2023-05-07T05:14:06;14.30;99.90
2100;DHT22;1055;48.854;9.302;2023-05-07T05:16:32;14.40;99.90
2100;DHT22;1055;48.854;9.302;2023-05-07T05:18:58;14.50;99.90
2100;DHT22;1055;48.854;9.302;2023-05-07T05:21:24;14.40;99.90
2100;DHT22;1055;48.854;9.302;2023-05-07T05:23:50;14.10;99.90
2100;DHT22;1055;48.854;9.302;2023-05-07T05:26:16;14.10;99.90
2100;DHT22;1055;48.854;9.302;2023-05-07T05:28:42;14.10;99.90
2100;DHT22;1055;48.854;9.302;2023-05-07T05:31:10;14.20;99.90
2100;DHT22;1055;48.854;9.302;2023-05-07T05:33:35;14.30;99.90
2100;DHT22;1055;48.854;9.302;2023-05-07T05:36:01;14.40;99.90
2100;DHT22;1055;48.854;9.302;2023-05-07T05:38:29;14.50;99.90
2100;DHT22;1055;48.854;9.302;2023-05-07T05:40:55;14.50;99.90
2100;DHT22;1055;48.854;9.302;2023-05-07T05:43:21;14.50;99.90
2100;DHT22;1055;48.854;9.302;2023-05-07T05:45:49;14.30;99.90
2100;DHT22;1055;48.854;9.302;2023-05-07T05:48:15;14.40;99.90
2100;DHT22;1055;48.854;9.302;2023-05-07T05:50:43;14.60;99.90
2100;DHT22;1055;48.854;9.302;2023-05-07T05:53:09;14.70;99.90
2100;DHT22;1055;48.854;9.302;2023-05-07T05:55:37;14.70;99.90
2100;DHT22;1055;48.854;9.302;2023-05-07T05:58:03;14.70;99.90
2100;DHT22;1055;48.854;9.302;2023-05-07T06:00:31;14.70;99.90
2100;DHT22;1055;48.854;9.302;2023-05-07T06:02:57;14.80;99.90
2100;DHT22;1055;48.854;9.302;2023-05-07T06:05:23;14.60;99.90
2100;DHT22;1055;48.854;9.302;2023-05-07T06:07:49;14.10;99.90
2100;DHT22;1055;48.854;9.302;2023-05-07T06:10:17;15.10;99.90
2100;DHT22;1055;48.854;9.302;2023-05-07T06:12:49;15.10;99.90
2100;DHT22;1055;48.854;9.302;2023-05-07T06:15:18;13.60;99.90
2100;DHT22;1055;48.854;9.302;2023-05-07T06:17:56;15.30;99.90
2100;DHT22;1055;48.854;9.302;2023-05-07T06:20:23;15.20;99.90
2100;DHT22;1055;48.854;9.302;2023-05-07T06:22:52;16.20;99.90
2100;DHT22;1055;48.854;9.302;2023-05-07T06:25:21;14.90;99.90
2100;DHT22;1055;48.854;9.302;2023-05-07T06:27:53;14.80;99.90
2100;DHT22;1055;48.854;9.302;2023-05-07T06:30:22;15.00;99.90
2100;DHT22;1055;48.854;9.302;2023-05-07T06:32:47;15.10;99.90
2100;DHT22;1055;48.854;9.302;2023-05-07T06:35:15;15.10;99.90
2100;DHT22;1055;48.854;9.302;2023-05-07T06:37:53;15.00;99.90
2100;DHT22;1055;48.854;9.302;2023-05-07T06:40:21;15.00;99.90
2100;DHT22;1055;48.854;9.302;2023-05-07T06:42:49;15.20;99.90
2100;DHT22;1055;48.854;9.302;2023-05-07T06:45:36;15.60;99.90
2100;DHT22;1055;48.854;9.302;2023-05-07T06:48:02;15.50;99.90
2100;DHT22;1055;48.854;9.302;2023-05-07T06:50:30;19.30;99.90
2100;DHT22;1055;48.854;9.302;2023-05-07T06:52:56;15.80;99.90
2100;DHT22;1055;48.854;9.302;2023-05-07T06:55:21;14.80;99.90
2100;DHT22;1055;48.854;9.302;2023-05-07T06:57:50;16.10;99.90
2100;DHT22;1055;48.854;9.302;2023-05-07T07:00:16;16.30;99.90
2100;DHT22;1055;48.854;9.302;2023-05-07T07:02:58;16.50;99.90
2100;DHT22;1055;48.854;9.302;2023-05-07T07:05:25;16.50;99.90
2100;DHT22;1055;48.854;9.302;2023-05-07T07:07:52;16.70;99.90
2100;DHT22;1055;48.854;9.302;2023-05-07T07:10:19;16.80;99.90
2100;DHT22;1055;48.854;9.302;2023-05-07T07:12:48;17.00;99.90
2100;DHT22;1055;48.854;9.302;2023-05-07T07:15:14;16.90;99.90
2100;DHT22;1055;48.854;9.302;2023-05-07T07:17:43;16.90;99.90
2100;DHT22;1055;48.854;9.302;2023-05-07T07:20:09;17.00;99.90
2100;DHT22;1055;48.854;9.302;2023-05-07T07:22:35;17.10;99.90
2100;DHT22;1055;48.854;9.302;2023-05-07T07:25:01;17.30;99.90
2100;DHT22;1055;48.854;9.302;2023-05-07T07:27:26;17.50;99.90
2100;DHT22;1055;48.854;9.302;2023-05-07T07:29:52;17.70;99.90
2100;DHT22;1055;48.854;9.302;2023-05-07T07:32:18;17.80;99.90
2100;DHT22;1055;48.854;9.302;2023-05-07T07:34:43;18.00;99.90
2100;DHT22;1055;48.854;9.302;2023-05-07T07:37:09;18.20;99.90
2100;DHT22;1055;48.854;9.302;2023-05-07T07:39:35;18.40;99.90
2100;DHT22;1055;48.854;9.302;2023-05-07T07:42:03;18.50;99.90
2100;DHT22;1055;48.854;9.302;2023-05-07T07:44:28;16.90;99.90
2100;DHT22;1055;48.854;9.302;2023-05-07T07:46:54;18.80;99.90
2100;DHT22;1055;48.854;9.302;2023-05-07T07:49:20;18.90;99.90
2100;DHT22;1055;48.854;9.302;2023-05-07T07:51:45;19.10;99.90
2100;DHT22;1055;48.854;9.302;2023-05-07T07:54:11;19.30;99.90
2100;DHT22;1055;48.854;9.302;2023-05-07T08:01:32;19.90;99.90
2100;DHT22;1055;48.854;9.302;2023-05-07T08:03:58;19.90;99.90
2100;DHT22;1055;48.854;9.302;2023-05-07T08:16:10;20.50;99.90
2100;DHT22;1055;48.854;9.302;2023-05-07T08:21:02;20.70;99.90
2100;DHT22;1055;48.854;9.302;2023-05-07T08:23:27;20.50;99.90
2100;DHT22;1055;48.854;9.302;2023-05-07T08:25:53;20.60;99.90
2100;DHT22;1055;48.854;9.302;2023-05-07T08:28:19;20.60;99.90
2100;DHT22;1055;48.854;9.302;2023-05-07T08:35:37;21.00;99.90
2100;DHT22;1055;48.854;9.302;2023-05-07T08:38:03;25.00;99.90
2100;DHT22;1055;48.854;9.302;2023-05-07T08:40:29;20.60;99.90
2100;DHT22;1055;48.854;9.302;2023-05-07T08:42:56;20.90;99.90
2100;DHT22;1055;48.854;9.302;2023-05-07T08:45:23;21.10;99.90
2100;DHT22;1055;48.854;9.302;2023-05-07T08:47:52;21.20;99.90
2100;DHT22;1055;48.854;9.302;2023-05-07T08:50:20;21.40;99.90
2100;DHT22;1055;48.854;9.302;2023-05-07T08:52:47;21.30;99.90
2100;DHT22;1055;48.854;9.302;2023-05-07T08:55:13;21.40;99.90
2100;DHT22;1055;48.854;9.302;2023-05-07T08:57:38;21.50;99.90
2100;DHT22;1055;48.854;9.302;2023-05-07T09:00:05;21.60;99.90
2100;DHT22;1055;48.854;9.302;2023-05-07T09:02:33;21.60;99.90
2100;DHT22;1055;48.854;9.302;2023-05-07T09:05:00;20.80;99.90
2100;DHT22;1055;48.854;9.302;2023-05-07T09:07:25;21.40;99.90
2100;DHT22;1055;48.854;9.302;2023-05-07T09:09:52;21.60;99.90
2100;DHT22;1055;48.854;9.302;2023-05-07T09:12:18;21.30;99.90
2100;DHT22;1055;48.854;9.302;2023-05-07T09:14:45;21.40;99.90
2100;DHT22;1055;48.854;9.302;2023-05-07T09:17:11;21.60;99.90
2100;DHT22;1055;48.854;9.302;2023-05-07T09:19:36;21.70;99.90
2100;DHT22;1055;48.854;9.302;2023-05-07T09:22:03;21.90;99.90
2100;DHT22;1055;48.854;9.302;2023-05-07T09:24:29;21.80;99.90
2100;DHT22;1055;48.854;9.302;2023-05-07T09:26:59;21.80;99.90
2100;DHT22;1055;48.854;9.302;2023-05-07T09:29:26;21.80;99.90
2100;DHT22;1055;48.854;9.302;2023-05-07T09:31:54;21.90;99.90
2100;DHT22;1055;48.854;9.302;2023-05-07T09:34:20;21.90;99.90
2100;DHT22;1055;48.854;9.302;2023-05-07T09:36:46;21.70;99.90
2100;DHT22;1055;48.854;9.302;2023-05-07T09:39:12;21.80;99.90
2100;DHT22;1055;48.854;9.302;2023-05-07T09:41:45;21.90;99.90
2100;DHT22;1055;48.854;9.302;2023-05-07T09:44:11;22.10;99.90
2100;DHT22;1055;48.854;9.302;2023-05-07T09:46:38;22.00;99.90
2100;DHT22;1055;48.854;9.302;2023-05-07T09:49:07;22.00;99.90
2100;DHT22;1055;48.854;9.302;2023-05-07T09:51:50;21.80;99.90
2100;DHT22;1055;48.854;9.302;2023-05-07T09:54:17;22.10;99.90
2100;DHT22;1055;48.854;9.302;2023-05-07T09:56:46;22.60;99.90
2100;DHT22;1055;48.854;9.302;2023-05-07T09:59:15;22.80;99.90
2100;DHT22;1055;48.854;9.302;2023-05-07T10:01:42;22.80;99.90
2100;DHT22;1055;48.854;9.302;2023-05-07T10:04:08;22.80;99.90
2100;DHT22;1055;48.854;9.302;2023-05-07T10:09:02;22.80;99.90
2100;DHT22;1055;48.854;9.302;2023-05-07T10:11:28;22.70;99.90
2100;DHT22;1055;48.854;9.302;2023-05-07T10:16:21;22.90;99.90
2100;DHT22;1055;48.854;9.302;2023-05-07T10:18:47;22.80;99.90
2100;DHT22;1055;48.854;9.302;2023-05-07T10:21:18;23.00;99.90
2100;DHT22;1055;48.854;9.302;2023-05-07T10:23:45;23.20;99.90
2100;DHT22;1055;48.854;9.302;2023-05-07T10:26:13;22.90;99.90
2100;DHT22;1055;48.854;9.302;2023-05-07T10:28:45;23.00;99.90
2100;DHT22;1055;48.854;9.302;2023-05-07T10:41:03;23.80;99.90
2100;DHT22;1055;48.854;9.302;2023-05-07T10:43:44;24.00;99.90
2100;DHT22;1055;48.854;9.302;2023-05-07T10:46:17;24.40;99.90
2100;DHT22;1055;48.854;9.302;2023-05-07T10:51:32;24.80;99.90
2100;DHT22;1055;48.854;9.302;2023-05-07T10:56:40;24.80;99.90
2100;DHT22;1055;48.854;9.302;2023-05-07T11:02:04;25.00;99.30
2100;DHT22;1055;48.854;9.302;2023-05-07T11:17:08;25.20;95.30
2100;DHT22;1055;48.854;9.302;2023-05-07T11:19:51;25.30;94.50
2100;DHT22;1055;48.854;9.302;2023-05-07T11:25:08;24.40;94.70
2100;DHT22;1055;48.854;9.302;2023-05-07T11:47:19;25.10;93.50
2100;DHT22;1055;48.854;9.302;2023-05-07T11:49:49;25.20;93.00
2100;DHT22;1055;48.854;9.302;2023-05-07T11:52:17;25.20;93.70
2100;DHT22;1055;48.854;9.302;2023-05-07T11:57:16;25.10;92.80
2100;DHT22;1055;48.854;9.302;2023-05-07T12:19:14;24.80;92.80
2100;DHT22;1055;48.854;9.302;2023-05-07T12:24:08;24.80;92.40
2100;DHT22;1055;48.854;9.302;2023-05-07T12:26:38;25.00;92.30
2100;DHT22;1055;48.854;9.302;2023-05-07T12:31:30;25.00;92.70
2100;DHT22;1055;48.854;9.302;2023-05-07T12:38:49;25.10;92.40
2100;DHT22;1055;48.854;9.302;2023-05-07T12:41:15;25.00;92.00
2100;DHT22;1055;48.854;9.302;2023-05-07T12:43:44;25.00;92.40
2100;DHT22;1055;48.854;9.302;2023-05-07T12:46:10;24.90;92.50
2100;DHT22;1055;48.854;9.302;2023-05-07T12:48:43;24.10;93.70
2100;DHT22;1055;48.854;9.302;2023-05-07T12:51:09;24.30;94.10
2100;DHT22;1055;48.854;9.302;2023-05-07T12:53:40;23.90;95.30
2100;DHT22;1055;48.854;9.302;2023-05-07T12:56:08;23.40;94.80
2100;DHT22;1055;48.854;9.302;2023-05-07T12:58:34;22.90;94.80
2100;DHT22;1055;48.854;9.302;2023-05-07T13:01:06;22.60;95.10
2100;DHT22;1055;48.854;9.302;2023-05-07T13:03:37;22.50;95.70
2100;DHT22;1055;48.854;9.302;2023-05-07T13:06:05;22.00;95.80
2100;DHT22;1055;48.854;9.302;2023-05-07T13:08:38;21.80;96.70
2100;DHT22;1055;48.854;9.302;2023-05-07T13:11:07;21.70;97.10
2100;DHT22;1055;48.854;9.302;2023-05-07T13:13:34;20.00;99.00
2100;DHT22;1055;48.854;9.302;2023-05-07T13:16:01;21.10;99.90
2100;DHT22;1055;48.854;9.302;2023-05-07T13:18:29;21.00;99.90
2100;DHT22;1055;48.854;9.302;2023-05-07T13:20:55;20.50;99.90
2100;DHT22;1055;48.854;9.302;2023-05-07T13:23:21;20.10;99.90
2100;DHT22;1055;48.854;9.302;2023-05-07T13:25:48;20.10;99.90
2100;DHT22;1055;48.854;9.302;2023-05-07T13:28:14;19.10;99.90
2100;DHT22;1055;48.854;9.302;2023-05-07T13:30:39;18.50;99.90
2100;DHT22;1055;48.854;9.302;2023-05-07T13:33:06;18.20;99.90
2100;DHT22;1055;48.854;9.302;2023-05-07T13:35:32;18.20;99.90
2100;DHT22;1055;48.854;9.302;2023-05-07T13:37:58;17.70;99.90
2100;DHT22;1055;48.854;9.302;2023-05-07T13:40:24;17.40;99.90
2100;DHT22;1055;48.854;9.302;2023-05-07T13:42:50;17.10;99.90
2100;DHT22;1055;48.854;9.302;2023-05-07T13:45:17;17.00;99.90
2100;DHT22;1055;48.854;9.302;2023-05-07T13:47:43;17.00;99.90
2100;DHT22;1055;48.854;9.302;2023-05-07T13:50:10;17.10;99.90
2100;DHT22;1055;48.854;9.302;2023-05-07T13:52:37;17.10;99.90
2100;DHT22;1055;48.854;9.302;2023-05-07T13:55:03;17.10;99.90
2100;DHT22;1055;48.854;9.302;2023-05-07T13:57:29;17.00;99.90
2100;DHT22;1055;48.854;9.302;2023-05-07T13:59:55;17.00;99.90
2100;DHT22;1055;48.854;9.302;2023-05-07T14:02:20;16.90;99.90
2100;DHT22;1055;48.854;9.302;2023-05-07T14:04:46;15.90;99.90
2100;DHT22;1055;48.854;9.302;2023-05-07T14:07:12;17.10;99.90
2100;DHT22;1055;48.854;9.302;2023-05-07T14:09:37;17.30;99.90
2100;DHT22;1055;48.854;9.302;2023-05-07T14:12:03;17.40;99.90
2100;DHT22;1055;48.854;9.302;2023-05-07T14:14:29;17.40;99.90
2100;DHT22;1055;48.854;9.302;2023-05-07T14:16:55;17.20;99.90
2100;DHT22;1055;48.854;9.302;2023-05-07T14:19:21;17.30;99.90
2100;DHT22;1055;48.854;9.302;2023-05-07T14:21:53;17.20;99.90
2100;DHT22;1055;48.854;9.302;2023-05-07T14:24:21;17.20;99.90
2100;DHT22;1055;48.854;9.302;2023-05-07T14:26:47;17.10;99.90
2100;DHT22;1055;48.854;9.302;2023-05-07T14:29:13;16.90;99.90
2100;DHT22;1055;48.854;9.302;2023-05-07T14:31:41;16.80;99.90
2100;DHT22;1055;48.854;9.302;2023-05-07T14:34:07;16.60;99.90
2100;DHT22;1055;48.854;9.302;2023-05-07T14:36:33;16.50;99.90
2100;DHT22;1055;48.854;9.302;2023-05-07T14:39:03;16.60;99.90
2100;DHT22;1055;48.854;9.302;2023-05-07T14:41:34;16.80;99.90
2100;DHT22;1055;48.854;9.302;2023-05-07T14:44:05;16.90;99.90
2100;DHT22;1055;48.854;9.302;2023-05-07T14:46:31;17.00;99.90
2100;DHT22;1055;48.854;9.302;2023-05-07T14:48:59;17.30;99.90
2100;DHT22;1055;48.854;9.302;2023-05-07T14:51:25;17.30;99.90
2100;DHT22;1055;48.854;9.302;2023-05-07T14:53:53;17.50;99.90
2100;DHT22;1055;48.854;9.302;2023-05-07T14:56:20;17.50;99.90
2100;DHT22;1055;48.854;9.302;2023-05-07T14:58:48;17.50;99.90
2100;DHT22;1055;48.854;9.302;2023-05-07T15:01:16;15.60;99.90
2100;DHT22;1055;48.854;9.302;2023-05-07T15:03:42;17.90;99.90
2100;DHT22;1055;48.854;9.302;2023-05-07T15:06:09;17.80;99.90
2100;DHT22;1055;48.854;9.302;2023-05-07T15:08:34;17.60;99.90
2100;DHT22;1055;48.854;9.302;2023-05-07T15:11:00;17.60;99.90
2100;DHT22;1055;48.854;9.302;2023-05-07T15:13:26;17.60;99.90
2100;DHT22;1055;48.854;9.302;2023-05-07T15:15:57;17.70;99.90
2100;DHT22;1055;48.854;9.302;2023-05-07T15:18:23;17.60;99.90
2100;DHT22;1055;48.854;9.302;2023-05-07T15:20:49;17.60;99.90
2100;DHT22;1055;48.854;9.302;2023-05-07T15:23:15;17.70;99.90
2100;DHT22;1055;48.854;9.302;2023-05-07T15:25:43;17.50;99.90
2100;DHT22;1055;48.854;9.302;2023-05-07T15:28:10;17.70;99.90
2100;DHT22;1055;48.854;9.302;2023-05-07T15:30:37;17.70;99.90
2100;DHT22;1055;48.854;9.302;2023-05-07T15:33:02;17.70;99.90
2100;DHT22;1055;48.854;9.302;2023-05-07T15:35:29;17.80;99.90
2100;DHT22;1055;48.854;9.302;2023-05-07T15:37:54;18.00;99.90
2100;DHT22;1055;48.854;9.302;2023-05-07T15:40:21;17.60;99.90
2100;DHT22;1055;48.854;9.302;2023-05-07T15:42:48;17.30;99.90
2100;DHT22;1055;48.854;9.302;2023-05-07T15:45:14;17.40;99.90
2100;DHT22;1055;48.854;9.302;2023-05-07T15:47:42;17.30;99.90
2100;DHT22;1055;48.854;9.302;2023-05-07T15:50:10;17.70;99.90
2100;DHT22;1055;48.854;9.302;2023-05-07T15:52:37;17.50;99.90
2100;DHT22;1055;48.854;9.302;2023-05-07T15:55:07;17.90;99.90
2100;DHT22;1055;48.854;9.302;2023-05-07T15:57:34;19.20;99.90
2100;DHT22;1055;48.854;9.302;2023-05-07T16:00:01;18.30;99.90
2100;DHT22;1055;48.854;9.302;2023-05-07T16:02:29;17.80;99.90
2100;DHT22;1055;48.854;9.302;2023-05-07T16:04:55;18.60;99.90
2100;DHT22;1055;48.854;9.302;2023-05-07T16:07:20;18.70;99.90
2100;DHT22;1055;48.854;9.302;2023-05-07T16:09:49;18.60;99.90
2100;DHT22;1055;48.854;9.302;2023-05-07T16:12:19;18.60;99.90
2100;DHT22;1055;48.854;9.302;2023-05-07T16:14:47;18.70;99.90
2100;DHT22;1055;48.854;9.302;2023-05-07T16:17:13;18.60;99.90
2100;DHT22;1055;48.854;9.302;2023-05-07T16:19:39;18.40;99.90
2100;DHT22;1055;48.854;9.302;2023-05-07T16:22:05;18.30;99.90
2100;DHT22;1055;48.854;9.302;2023-05-07T16:24:31;18.30;99.90
2100;DHT22;1055;48.854;9.302;2023-05-07T16:26:57;18.20;99.90
2100;DHT22;1055;48.854;9.302;2023-05-07T16:29:23;18.50;99.90
2100;DHT22;1055;48.854;9.302;2023-05-07T16:31:49;18.50;99.90
2100;DHT22;1055;48.854;9.302;2023-05-07T16:34:19;18.60;99.90
2100;DHT22;1055;48.854;9.302;2023-05-07T16:36:46;18.70;99.90
2100;DHT22;1055;48.854;9.302;2023-05-07T16:39:11;18.40;99.90
2100;DHT22;1055;48.854;9.302;2023-05-07T16:41:37;18.30;99.90
2100;DHT22;1055;48.854;9.302;2023-05-07T16:44:03;17.70;99.90
2100;DHT22;1055;48.854;9.302;2023-05-07T16:46:30;18.10;99.90
2100;DHT22;1055;48.854;9.302;2023-05-07T16:48:56;18.30;99.90
2100;DHT22;1055;48.854;9.302;2023-05-07T16:51:22;17.60;99.90
2100;DHT22;1055;48.854;9.302;2023-05-07T16:53:49;17.70;99.90
2100;DHT22;1055;48.854;9.302;2023-05-07T16:56:15;18.10;99.90
2100;DHT22;1055;48.854;9.302;2023-05-07T16:58:41;18.20;99.90
2100;DHT22;1055;48.854;9.302;2023-05-07T17:01:07;17.50;99.90
2100;DHT22;1055;48.854;9.302;2023-05-07T17:03:36;17.70;99.90
2100;DHT22;1055;48.854;9.302;2023-05-07T17:06:02;17.70;99.90
2100;DHT22;1055;48.854;9.302;2023-05-07T17:08:28;17.50;99.90
2100;DHT22;1055;48.854;9.302;2023-05-07T17:10:54;17.70;99.90
2100;DHT22;1055;48.854;9.302;2023-05-07T17:13:20;17.90;99.90
2100;DHT22;1055;48.854;9.302;2023-05-07T17:15:46;17.90;99.90
2100;DHT22;1055;48.854;9.302;2023-05-07T17:18:14;17.70;99.90
2100;DHT22;1055;48.854;9.302;2023-05-07T17:20:40;17.60;99.90
2100;DHT22;1055;48.854;9.302;2023-05-07T17:23:07;17.70;99.90
2100;DHT22;1055;48.854;9.302;2023-05-07T17:25:34;17.70;99.90
2100;DHT22;1055;48.854;9.302;2023-05-07T17:28:03;17.80;99.90
2100;DHT22;1055;48.854;9.302;2023-05-07T17:30:32;17.80;99.90
2100;DHT22;1055;48.854;9.302;2023-05-07T17:32:58;17.50;99.90
2100;DHT22;1055;48.854;9.302;2023-05-07T17:35:27;17.40;99.90
2100;DHT22;1055;48.854;9.302;2023-05-07T17:37:57;17.40;99.90
2100;DHT22;1055;48.854;9.302;2023-05-07T17:40:25;17.20;99.90
2100;DHT22;1055;48.854;9.302;2023-05-07T17:42:54;17.20;99.90
2100;DHT22;1055;48.854;9.302;2023-05-07T17:45:21;17.40;99.90
2100;DHT22;1055;48.854;9.302;2023-05-07T17:47:50;17.50;99.90
2100;DHT22;1055;48.854;9.302;2023-05-07T17:50:16;17.00;99.90
2100;DHT22;1055;48.854;9.302;2023-05-07T17:52:43;17.00;99.90